Time;durP1;ratioP1;P1;durP2;ratioP2;P2;SDS_P1;SDS_P2;PMS_P1;PMS_P2;Temp;Humidity;BMP_temperature;BMP_pressure;BME280_temperature;BME280_humidity;BME280_pressure;Samples;Min_cycle;Max_cycle;Signal;HPM_P1;HPM_P2
2021/01/03 00:00:20;;;;;;;42.55001;17.05;;;;;;;-1.2;79.12207;94242.47;;;;
2021/01/03 00:01:23;;;;;;;42.55001;17.05;;;;;;;-1.2;79.12207;94242.47;;;;
2021/01/03 00:02:24;;;;;;;43.2;16.7;;;;;;;-1.19;79.39355;94235.77;;;;
2021/01/03 00:03:24;;;;;;;43.2;16.7;;;;;;;-1.19;79.39355;94235.77;;;;
2021/01/03 00:04:25;;;;;;;43.2;16.7;;;;;;;-1.19;79.39355;94235.77;;;;
2021/01/03 00:05:25;;;;;;;43.2;16.7;;;;;;;-1.19;79.39355;94235.77;;;;
2021/01/03 00:06:28;;;;;;;43.2;16.7;;;;;;;-1.19;79.39355;94235.77;;;;
2021/01/03 00:07:29;;;;;;;43.2;16.7;;;;;;;-1.19;79.39355;94235.77;;;;
2021/01/03 00:08:29;;;;;;;43.2;16.7;;;;;;;-1.19;79.39355;94235.77;;;;
2021/01/03 00:09:30;;;;;;;43.2;16.7;;;;;;;-1.19;79.39355;94235.77;;;;
2021/01/03 00:10:31;;;;;;;43.2;16.7;;;;;;;-1.19;79.39355;94235.77;;;;
2021/01/03 00:11:31;;;;;;;43.2;16.7;;;;;;;-1.19;79.39355;94235.77;;;;
2021/01/03 00:12:32;;;;;;;48.5;18.15;;;;;;;-1.12;79.375;94225.62;;;;
2021/01/03 00:13:32;;;;;;;48.5;18.15;;;;;;;-1.12;79.375;94225.62;;;;
2021/01/03 00:14:33;;;;;;;48.5;18.15;;;;;;;-1.12;79.375;94225.62;;;;
2021/01/03 00:15:33;;;;;;;48.5;18.15;;;;;;;-1.12;79.375;94225.62;;;;
2021/01/03 00:16:34;;;;;;;48.5;18.15;;;;;;;-1.12;79.375;94225.62;;;;
2021/01/03 00:17:35;;;;;;;48.5;18.15;;;;;;;-1.12;79.375;94225.62;;;;
2021/01/03 00:18:35;;;;;;;48.5;18.15;;;;;;;-1.12;79.375;94225.62;;;;
2021/01/03 00:19:36;;;;;;;48.5;18.15;;;;;;;-1.12;79.375;94225.62;;;;
2021/01/03 00:20:37;;;;;;;48.5;18.15;;;;;;;-1.12;79.375;94225.62;;;;
2021/01/03 00:21:38;;;;;;;48.5;18.15;;;;;;;-1.12;79.375;94225.62;;;;
2021/01/03 00:22:38;;;;;;;48.5;18.15;;;;;;;-1.12;79.375;94225.62;;;;
2021/01/03 00:23:40;;;;;;;44.8;16.95;;;;;;;-1.12;79.28125;94227.78;;;;
2021/01/03 00:24:40;;;;;;;44.8;16.95;;;;;;;-1.12;79.28125;94227.78;;;;
2021/01/03 00:25:41;;;;;;;44.8;16.95;;;;;;;-1.12;79.28125;94227.78;;;;
2021/01/03 00:26:41;;;;;;;44.8;16.95;;;;;;;-1.12;79.28125;94227.78;;;;
2021/01/03 00:27:42;;;;;;;44.8;16.95;;;;;;;-1.12;79.28125;94227.78;;;;
2021/01/03 00:28:43;;;;;;;44.8;16.95;;;;;;;-1.12;79.28125;94227.78;;;;
2021/01/03 00:29:43;;;;;;;44.8;16.95;;;;;;;-1.12;79.28125;94227.78;;;;
2021/01/03 00:30:44;;;;;;;44.8;16.95;;;;;;;-1.12;79.28125;94227.78;;;;
2021/01/03 00:31:44;;;;;;;44.8;16.95;;;;;;;-1.12;79.28125;94227.78;;;;
2021/01/03 00:32:48;;;;;;;44.8;16.95;;;;;;;-1.12;79.28125;94227.78;;;;
2021/01/03 00:33:49;;;;;;;51.30001;17.3;;;;;;;-1.12;79.53027;94240.61;;;;
2021/01/03 00:34:50;;;;;;;51.30001;17.3;;;;;;;-1.12;79.53027;94240.61;;;;
2021/01/03 00:35:51;;;;;;;51.30001;17.3;;;;;;;-1.12;79.53027;94240.61;;;;
2021/01/03 00:36:51;;;;;;;51.30001;17.3;;;;;;;-1.12;79.53027;94240.61;;;;
2021/01/03 00:37:52;;;;;;;51.30001;17.3;;;;;;;-1.12;79.53027;94240.61;;;;
2021/01/03 00:38:53;;;;;;;51.30001;17.3;;;;;;;-1.12;79.53027;94240.61;;;;
2021/01/03 00:39:53;;;;;;;51.30001;17.3;;;;;;;-1.12;79.53027;94240.61;;;;
2021/01/03 00:40:53;;;;;;;51.30001;17.3;;;;;;;-1.12;79.53027;94240.61;;;;
2021/01/03 00:41:54;;;;;;;51.30001;17.3;;;;;;;-1.12;79.53027;94240.61;;;;
2021/01/03 00:42:54;;;;;;;51.30001;17.3;;;;;;;-1.12;79.53027;94240.61;;;;
2021/01/03 00:43:55;;;;;;;51.30001;17.3;;;;;;;-1.12;79.53027;94240.61;;;;
2021/01/03 00:44:56;;;;;;;41.9;17.6;;;;;;;-1.02;80.04883;94232.23;;;;
2021/01/03 00:45:56;;;;;;;41.9;17.6;;;;;;;-1.02;80.04883;94232.23;;;;
2021/01/03 00:46:56;;;;;;;41.9;17.6;;;;;;;-1.02;80.04883;94232.23;;;;
2021/01/03 00:47:58;;;;;;;41.9;17.6;;;;;;;-1.02;80.04883;94232.23;;;;
2021/01/03 00:48:58;;;;;;;41.9;17.6;;;;;;;-1.02;80.04883;94232.23;;;;
2021/01/03 00:49:59;;;;;;;41.9;17.6;;;;;;;-1.02;80.04883;94232.23;;;;
2021/01/03 00:50:59;;;;;;;41.9;17.6;;;;;;;-1.02;80.04883;94232.23;;;;
2021/01/03 00:52:00;;;;;;;41.9;17.6;;;;;;;-1.02;80.04883;94232.23;;;;
2021/01/03 00:53:00;;;;;;;41.9;17.6;;;;;;;-1.02;80.04883;94232.23;;;;
2021/01/03 00:54:02;;;;;;;41.9;17.6;;;;;;;-1.02;80.04883;94232.23;;;;
2021/01/03 00:55:03;;;;;;;50.1;17.55;;;;;;;-0.96;79.5918;94231.06;;;;
2021/01/03 00:56:05;;;;;;;50.1;17.55;;;;;;;-0.96;79.5918;94231.06;;;;
2021/01/03 00:57:06;;;;;;;50.1;17.55;;;;;;;-0.96;79.5918;94231.06;;;;
2021/01/03 00:58:06;;;;;;;50.1;17.55;;;;;;;-0.96;79.5918;94231.06;;;;
2021/01/03 00:59:06;;;;;;;50.1;17.55;;;;;;;-0.96;79.5918;94231.06;;;;
2021/01/03 01:00:07;;;;;;;50.1;17.55;;;;;;;-0.96;79.5918;94231.06;;;;
2021/01/03 01:01:12;;;;;;;50.1;17.55;;;;;;;-0.96;79.5918;94231.06;;;;
2021/01/03 01:02:12;;;;;;;50.1;17.55;;;;;;;-0.96;79.5918;94231.06;;;;
2021/01/03 01:03:13;;;;;;;50.1;17.55;;;;;;;-0.96;79.5918;94231.06;;;;
2021/01/03 01:04:13;;;;;;;50.1;17.55;;;;;;;-0.96;79.5918;94231.06;;;;
2021/01/03 01:05:14;;;;;;;50.1;17.55;;;;;;;-0.96;79.5918;94231.06;;;;
2021/01/03 01:06:16;;;;;;;50.1;19.05;;;;;;;-0.94;79.69922;94243.2;;;;
2021/01/03 01:07:16;;;;;;;50.1;19.05;;;;;;;-0.94;79.69922;94243.2;;;;
2021/01/03 01:08:17;;;;;;;50.1;19.05;;;;;;;-0.94;79.69922;94243.2;;;;
2021/01/03 01:09:18;;;;;;;50.1;19.05;;;;;;;-0.94;79.69922;94243.2;;;;
2021/01/03 01:10:21;;;;;;;50.1;19.05;;;;;;;-0.94;79.69922;94243.2;;;;
2021/01/03 01:11:24;;;;;;;50.1;19.05;;;;;;;-0.94;79.69922;94243.2;;;;
2021/01/03 01:12:25;;;;;;;50.1;19.05;;;;;;;-0.94;79.69922;94243.2;;;;
2021/01/03 01:13:26;;;;;;;50.1;19.05;;;;;;;-0.94;79.69922;94243.2;;;;
2021/01/03 01:14:27;;;;;;;50.1;19.05;;;;;;;-0.94;79.69922;94243.2;;;;
2021/01/03 01:15:27;;;;;;;50.1;19.05;;;;;;;-0.94;79.69922;94243.2;;;;
2021/01/03 01:16:31;;;;;;;50.7;19.8;;;;;;;-0.93;79.69043;94248.3;;;;
2021/01/03 01:17:33;;;;;;;50.7;19.8;;;;;;;-0.93;79.69043;94248.3;;;;
2021/01/03 01:18:33;;;;;;;50.7;19.8;;;;;;;-0.93;79.69043;94248.3;;;;
2021/01/03 01:19:35;;;;;;;50.7;19.8;;;;;;;-0.93;79.69043;94248.3;;;;
2021/01/03 01:20:35;;;;;;;50.7;19.8;;;;;;;-0.93;79.69043;94248.3;;;;
2021/01/03 01:21:36;;;;;;;50.7;19.8;;;;;;;-0.93;79.69043;94248.3;;;;
2021/01/03 01:22:37;;;;;;;50.7;19.8;;;;;;;-0.93;79.69043;94248.3;;;;
2021/01/03 01:23:37;;;;;;;50.7;19.8;;;;;;;-0.93;79.69043;94248.3;;;;
2021/01/03 01:24:37;;;;;;;50.7;19.8;;;;;;;-0.93;79.69043;94248.3;;;;
2021/01/03 01:25:38;;;;;;;50.7;19.8;;;;;;;-0.93;79.69043;94248.3;;;;
2021/01/03 01:26:39;;;;;;;50.7;19.8;;;;;;;-0.93;79.69043;94248.3;;;;
2021/01/03 01:27:39;;;;;;;54.35;19;;;;;;;-0.9;80.0498;94259.94;;;;
2021/01/03 01:28:40;;;;;;;54.35;19;;;;;;;-0.9;80.0498;94259.94;;;;
2021/01/03 01:29:40;;;;;;;54.35;19;;;;;;;-0.9;80.0498;94259.94;;;;
2021/01/03 01:30:41;;;;;;;54.35;19;;;;;;;-0.9;80.0498;94259.94;;;;
2021/01/03 01:31:41;;;;;;;54.35;19;;;;;;;-0.9;80.0498;94259.94;;;;
2021/01/03 01:32:42;;;;;;;54.35;19;;;;;;;-0.9;80.0498;94259.94;;;;
2021/01/03 01:33:43;;;;;;;54.35;19;;;;;;;-0.9;80.0498;94259.94;;;;
2021/01/03 01:34:43;;;;;;;54.35;19;;;;;;;-0.9;80.0498;94259.94;;;;
2021/01/03 01:35:44;;;;;;;54.35;19;;;;;;;-0.9;80.0498;94259.94;;;;
2021/01/03 01:36:45;;;;;;;54.35;19;;;;;;;-0.9;80.0498;94259.94;;;;
2021/01/03 01:37:45;;;;;;;54.55;19;;;;;;;-0.89;80.11426;94257.51;;;;
2021/01/03 01:38:46;;;;;;;54.55;19;;;;;;;-0.89;80.11426;94257.51;;;;
2021/01/03 01:39:49;;;;;;;54.55;19;;;;;;;-0.89;80.11426;94257.51;;;;
2021/01/03 01:40:49;;;;;;;54.55;19;;;;;;;-0.89;80.11426;94257.51;;;;
2021/01/03 01:41:50;;;;;;;54.55;19;;;;;;;-0.89;80.11426;94257.51;;;;
2021/01/03 01:42:50;;;;;;;54.55;19;;;;;;;-0.89;80.11426;94257.51;;;;
2021/01/03 01:43:52;;;;;;;54.55;19;;;;;;;-0.89;80.11426;94257.51;;;;
2021/01/03 01:44:52;;;;;;;54.55;19;;;;;;;-0.89;80.11426;94257.51;;;;
2021/01/03 01:45:53;;;;;;;54.55;19;;;;;;;-0.89;80.11426;94257.51;;;;
2021/01/03 01:46:54;;;;;;;54.55;19;;;;;;;-0.89;80.11426;94257.51;;;;
2021/01/03 01:48:01;;;;;;;54.55;19;;;;;;;-0.89;80.11426;94257.51;;;;
2021/01/03 01:49:06;;;;;;;47.55;17.85;;;;;;;-0.87;80.69141;94265.68;;;;
2021/01/03 01:50:11;;;;;;;47.55;17.85;;;;;;;-0.87;80.69141;94265.68;;;;
2021/01/03 01:51:21;;;;;;;47.55;17.85;;;;;;;-0.87;80.69141;94265.68;;;;
2021/01/03 01:52:27;;;;;;;47.55;17.85;;;;;;;-0.87;80.69141;94265.68;;;;
2021/01/03 01:53:36;;;;;;;47.55;17.85;;;;;;;-0.87;80.69141;94265.68;;;;
2021/01/03 01:54:51;;;;;;;47.55;17.85;;;;;;;-0.87;80.69141;94265.68;;;;
2021/01/03 01:55:58;;;;;;;47.55;17.85;;;;;;;-0.87;80.69141;94265.68;;;;
2021/01/03 01:57:03;;;;;;;47.55;17.85;;;;;;;-0.87;80.69141;94265.68;;;;
2021/01/03 01:58:10;;;;;;;47.55;17.85;;;;;;;-0.87;80.69141;94265.68;;;;
2021/01/03 01:59:16;;;;;;;50.85;18.3;;;;;;;-0.88;80.28223;94268.52;;;;
2021/01/03 02:00:29;;;;;;;50.85;18.3;;;;;;;-0.88;80.28223;94268.52;;;;
2021/01/03 02:01:33;;;;;;;50.85;18.3;;;;;;;-0.88;80.28223;94268.52;;;;
2021/01/03 02:02:41;;;;;;;50.85;18.3;;;;;;;-0.88;80.28223;94268.52;;;;
2021/01/03 02:03:49;;;;;;;50.85;18.3;;;;;;;-0.88;80.28223;94268.52;;;;
2021/01/03 02:04:57;;;;;;;50.85;18.3;;;;;;;-0.88;80.28223;94268.52;;;;
2021/01/03 02:06:09;;;;;;;50.85;18.3;;;;;;;-0.88;80.28223;94268.52;;;;
2021/01/03 02:07:15;;;;;;;50.85;18.3;;;;;;;-0.88;80.28223;94268.52;;;;
2021/01/03 02:08:22;;;;;;;50.85;18.3;;;;;;;-0.88;80.28223;94268.52;;;;
2021/01/03 02:09:31;;;;;;;50.85;18.3;;;;;;;-0.88;80.28223;94268.52;;;;
2021/01/03 02:10:41;;;;;;;50.2;18.85;;;;;;;-0.88;80.5752;94257.81;;;;
2021/01/03 02:11:45;;;;;;;50.2;18.85;;;;;;;-0.88;80.5752;94257.81;;;;
2021/01/03 02:12:45;;;;;;;50.2;18.85;;;;;;;-0.88;80.5752;94257.81;;;;
2021/01/03 02:13:49;;;;;;;50.2;18.85;;;;;;;-0.88;80.5752;94257.81;;;;
2021/01/03 02:14:53;;;;;;;50.2;18.85;;;;;;;-0.88;80.5752;94257.81;;;;
2021/01/03 02:15:54;;;;;;;50.2;18.85;;;;;;;-0.88;80.5752;94257.81;;;;
2021/01/03 02:16:59;;;;;;;50.2;18.85;;;;;;;-0.88;80.5752;94257.81;;;;
2021/01/03 02:18:00;;;;;;;50.2;18.85;;;;;;;-0.88;80.5752;94257.81;;;;
2021/01/03 02:19:03;;;;;;;50.2;18.85;;;;;;;-0.88;80.5752;94257.81;;;;
2021/01/03 02:20:07;;;;;;;50.2;18.85;;;;;;;-0.88;80.5752;94257.81;;;;
2021/01/03 02:21:09;;;;;;;45.45;17.65;;;;;;;-0.82;80.66895;94248.69;;;;
2021/01/03 02:22:17;;;;;;;45.45;17.65;;;;;;;-0.82;80.66895;94248.69;;;;
2021/01/03 02:23:28;;;;;;;45.45;17.65;;;;;;;-0.82;80.66895;94248.69;;;;
2021/01/03 02:24:36;;;;;;;45.45;17.65;;;;;;;-0.82;80.66895;94248.69;;;;
2021/01/03 02:25:44;;;;;;;45.45;17.65;;;;;;;-0.82;80.66895;94248.69;;;;
2021/01/03 02:26:45;;;;;;;45.45;17.65;;;;;;;-0.82;80.66895;94248.69;;;;
2021/01/03 02:27:50;;;;;;;45.45;17.65;;;;;;;-0.82;80.66895;94248.69;;;;
2021/01/03 02:29:02;;;;;;;45.45;17.65;;;;;;;-0.82;80.66895;94248.69;;;;
2021/01/03 02:30:04;;;;;;;45.45;17.65;;;;;;;-0.82;80.66895;94248.69;;;;
2021/01/03 02:31:09;;;;;;;51.5;19.05;;;;;;;-0.78;80.41602;94241.09;;;;
2021/01/03 02:32:13;;;;;;;51.5;19.05;;;;;;;-0.78;80.41602;94241.09;;;;
2021/01/03 02:33:14;;;;;;;51.5;19.05;;;;;;;-0.78;80.41602;94241.09;;;;
2021/01/03 02:34:20;;;;;;;51.5;19.05;;;;;;;-0.78;80.41602;94241.09;;;;
2021/01/03 02:35:25;;;;;;;51.5;19.05;;;;;;;-0.78;80.41602;94241.09;;;;
2021/01/03 02:36:25;;;;;;;51.5;19.05;;;;;;;-0.78;80.41602;94241.09;;;;
2021/01/03 02:37:30;;;;;;;51.5;19.05;;;;;;;-0.78;80.41602;94241.09;;;;
2021/01/03 02:38:36;;;;;;;51.5;19.05;;;;;;;-0.78;80.41602;94241.09;;;;
2021/01/03 02:39:42;;;;;;;51.5;19.05;;;;;;;-0.78;80.41602;94241.09;;;;
2021/01/03 02:40:51;;;;;;;51.5;19.05;;;;;;;-0.78;80.41602;94241.09;;;;
2021/01/03 02:41:52;;;;;;;48.4;17.25;;;;;;;-0.76;80.44238;94235.1;;;;
2021/01/03 02:42:54;;;;;;;48.4;17.25;;;;;;;-0.76;80.44238;94235.1;;;;
2021/01/03 02:43:55;;;;;;;48.4;17.25;;;;;;;-0.76;80.44238;94235.1;;;;
2021/01/03 02:44:55;;;;;;;48.4;17.25;;;;;;;-0.76;80.44238;94235.1;;;;
2021/01/03 02:45:58;;;;;;;48.4;17.25;;;;;;;-0.76;80.44238;94235.1;;;;
2021/01/03 02:46:59;;;;;;;48.4;17.25;;;;;;;-0.76;80.44238;94235.1;;;;
2021/01/03 02:48:00;;;;;;;48.4;17.25;;;;;;;-0.76;80.44238;94235.1;;;;
2021/01/03 02:49:08;;;;;;;48.4;17.25;;;;;;;-0.76;80.44238;94235.1;;;;
2021/01/03 02:50:09;;;;;;;48.4;17.25;;;;;;;-0.76;80.44238;94235.1;;;;
2021/01/03 02:51:15;;;;;;;48.4;17.25;;;;;;;-0.76;80.44238;94235.1;;;;
2021/01/03 02:52:15;;;;;;;48.4;17.25;;;;;;;-0.76;80.44238;94235.1;;;;
2021/01/03 02:53:22;;;;;;;49.35;18.15;;;;;;;-0.79;80.68652;94230.16;;;;
2021/01/03 02:54:22;;;;;;;49.35;18.15;;;;;;;-0.79;80.68652;94230.16;;;;
2021/01/03 02:55:23;;;;;;;49.35;18.15;;;;;;;-0.79;80.68652;94230.16;;;;
2021/01/03 02:56:23;;;;;;;49.35;18.15;;;;;;;-0.79;80.68652;94230.16;;;;
2021/01/03 02:57:24;;;;;;;49.35;18.15;;;;;;;-0.79;80.68652;94230.16;;;;
2021/01/03 02:58:24;;;;;;;49.35;18.15;;;;;;;-0.79;80.68652;94230.16;;;;
2021/01/03 02:59:25;;;;;;;49.35;18.15;;;;;;;-0.79;80.68652;94230.16;;;;
2021/01/03 03:00:26;;;;;;;49.35;18.15;;;;;;;-0.79;80.68652;94230.16;;;;
2021/01/03 03:01:29;;;;;;;49.35;18.15;;;;;;;-0.79;80.68652;94230.16;;;;
2021/01/03 03:02:30;;;;;;;49.35;18.15;;;;;;;-0.79;80.68652;94230.16;;;;
2021/01/03 03:03:30;;;;;;;45.6;17.3;;;;;;;-0.83;80.83496;94227.58;;;;
2021/01/03 03:04:31;;;;;;;45.6;17.3;;;;;;;-0.83;80.83496;94227.58;;;;
2021/01/03 03:05:31;;;;;;;45.6;17.3;;;;;;;-0.83;80.83496;94227.58;;;;
2021/01/03 03:06:32;;;;;;;45.6;17.3;;;;;;;-0.83;80.83496;94227.58;;;;
2021/01/03 03:07:32;;;;;;;45.6;17.3;;;;;;;-0.83;80.83496;94227.58;;;;
2021/01/03 03:08:33;;;;;;;45.6;17.3;;;;;;;-0.83;80.83496;94227.58;;;;
2021/01/03 03:09:33;;;;;;;45.6;17.3;;;;;;;-0.83;80.83496;94227.58;;;;
2021/01/03 03:10:34;;;;;;;45.6;17.3;;;;;;;-0.83;80.83496;94227.58;;;;
2021/01/03 03:11:35;;;;;;;45.6;17.3;;;;;;;-0.83;80.83496;94227.58;;;;
2021/01/03 03:12:35;;;;;;;45.6;17.3;;;;;;;-0.83;80.83496;94227.58;;;;
2021/01/03 03:13:36;;;;;;;45.6;17.3;;;;;;;-0.83;80.83496;94227.58;;;;
2021/01/03 03:14:37;;;;;;;48.75;18.65;;;;;;;-0.76;80.89941;94224.5;;;;
2021/01/03 03:15:37;;;;;;;48.75;18.65;;;;;;;-0.76;80.89941;94224.5;;;;
2021/01/03 03:16:38;;;;;;;48.75;18.65;;;;;;;-0.76;80.89941;94224.5;;;;
2021/01/03 03:17:38;;;;;;;48.75;18.65;;;;;;;-0.76;80.89941;94224.5;;;;
2021/01/03 03:18:39;;;;;;;48.75;18.65;;;;;;;-0.76;80.89941;94224.5;;;;
2021/01/03 03:19:39;;;;;;;48.75;18.65;;;;;;;-0.76;80.89941;94224.5;;;;
2021/01/03 03:20:40;;;;;;;48.75;18.65;;;;;;;-0.76;80.89941;94224.5;;;;
2021/01/03 03:21:40;;;;;;;48.75;18.65;;;;;;;-0.76;80.89941;94224.5;;;;
2021/01/03 03:22:41;;;;;;;48.75;18.65;;;;;;;-0.76;80.89941;94224.5;;;;
2021/01/03 03:23:41;;;;;;;48.75;18.65;;;;;;;-0.76;80.89941;94224.5;;;;
2021/01/03 03:24:41;;;;;;;46.3;16.4;;;;;;;-0.7;80.95215;94235.22;;;;
2021/01/03 03:25:42;;;;;;;46.3;16.4;;;;;;;-0.7;80.95215;94235.22;;;;
2021/01/03 03:26:42;;;;;;;46.3;16.4;;;;;;;-0.7;80.95215;94235.22;;;;
2021/01/03 03:27:43;;;;;;;46.3;16.4;;;;;;;-0.7;80.95215;94235.22;;;;
2021/01/03 03:28:44;;;;;;;46.3;16.4;;;;;;;-0.7;80.95215;94235.22;;;;
2021/01/03 03:29:44;;;;;;;46.3;16.4;;;;;;;-0.7;80.95215;94235.22;;;;
2021/01/03 03:30:46;;;;;;;46.3;16.4;;;;;;;-0.7;80.95215;94235.22;;;;
2021/01/03 03:31:46;;;;;;;46.3;16.4;;;;;;;-0.7;80.95215;94235.22;;;;
2021/01/03 03:32:52;;;;;;;46.3;16.4;;;;;;;-0.7;80.95215;94235.22;;;;
2021/01/03 03:33:52;;;;;;;46.3;16.4;;;;;;;-0.7;80.95215;94235.22;;;;
2021/01/03 03:34:53;;;;;;;46.3;16.4;;;;;;;-0.7;80.95215;94235.22;;;;
2021/01/03 03:35:53;;;;;;;43.85;16.2;;;;;;;-0.65;81.03418;94241.28;;;;
2021/01/03 03:36:54;;;;;;;43.85;16.2;;;;;;;-0.65;81.03418;94241.28;;;;
2021/01/03 03:37:55;;;;;;;43.85;16.2;;;;;;;-0.65;81.03418;94241.28;;;;
2021/01/03 03:38:57;;;;;;;43.85;16.2;;;;;;;-0.65;81.03418;94241.28;;;;
2021/01/03 03:39:58;;;;;;;43.85;16.2;;;;;;;-0.65;81.03418;94241.28;;;;
2021/01/03 03:40:58;;;;;;;43.85;16.2;;;;;;;-0.65;81.03418;94241.28;;;;
2021/01/03 03:41:59;;;;;;;43.85;16.2;;;;;;;-0.65;81.03418;94241.28;;;;
2021/01/03 03:43:00;;;;;;;43.85;16.2;;;;;;;-0.65;81.03418;94241.28;;;;
2021/01/03 03:44:01;;;;;;;43.85;16.2;;;;;;;-0.65;81.03418;94241.28;;;;
2021/01/03 03:45:04;;;;;;;43.85;16.2;;;;;;;-0.65;81.03418;94241.28;;;;
2021/01/03 03:46:06;;;;;;;46.09999;17.25;;;;;;;-0.67;80.91602;94241.89;;;;
2021/01/03 03:47:06;;;;;;;46.09999;17.25;;;;;;;-0.67;80.91602;94241.89;;;;
2021/01/03 03:48:06;;;;;;;46.09999;17.25;;;;;;;-0.67;80.91602;94241.89;;;;
2021/01/03 03:49:08;;;;;;;46.09999;17.25;;;;;;;-0.67;80.91602;94241.89;;;;
2021/01/03 03:50:09;;;;;;;46.09999;17.25;;;;;;;-0.67;80.91602;94241.89;;;;
2021/01/03 03:51:15;;;;;;;46.09999;17.25;;;;;;;-0.67;80.91602;94241.89;;;;
2021/01/03 03:52:16;;;;;;;46.09999;17.25;;;;;;;-0.67;80.91602;94241.89;;;;
2021/01/03 03:53:17;;;;;;;46.09999;17.25;;;;;;;-0.67;80.91602;94241.89;;;;
2021/01/03 03:54:17;;;;;;;46.09999;17.25;;;;;;;-0.67;80.91602;94241.89;;;;
2021/01/03 03:55:17;;;;;;;46.09999;17.25;;;;;;;-0.67;80.91602;94241.89;;;;
2021/01/03 03:56:18;;;;;;;46.09999;17.25;;;;;;;-0.67;80.91602;94241.89;;;;
2021/01/03 03:57:19;;;;;;;42.3;15.7;;;;;;;-0.61;81.15527;94234.06;;;;
2021/01/03 03:58:19;;;;;;;42.3;15.7;;;;;;;-0.61;81.15527;94234.06;;;;
2021/01/03 03:59:20;;;;;;;42.3;15.7;;;;;;;-0.61;81.15527;94234.06;;;;
2021/01/03 04:00:21;;;;;;;42.3;15.7;;;;;;;-0.61;81.15527;94234.06;;;;
2021/01/03 04:01:23;;;;;;;42.3;15.7;;;;;;;-0.61;81.15527;94234.06;;;;
2021/01/03 04:02:24;;;;;;;42.3;15.7;;;;;;;-0.61;81.15527;94234.06;;;;
2021/01/03 04:03:24;;;;;;;42.3;15.7;;;;;;;-0.61;81.15527;94234.06;;;;
2021/01/03 04:04:25;;;;;;;42.3;15.7;;;;;;;-0.61;81.15527;94234.06;;;;
2021/01/03 04:05:25;;;;;;;42.3;15.7;;;;;;;-0.61;81.15527;94234.06;;;;
2021/01/03 04:06:26;;;;;;;42.3;15.7;;;;;;;-0.61;81.15527;94234.06;;;;
2021/01/03 04:07:27;;;;;;;41.95;17;;;;;;;-0.57;80.99609;94214.11;;;;
2021/01/03 04:08:27;;;;;;;41.95;17;;;;;;;-0.57;80.99609;94214.11;;;;
2021/01/03 04:09:28;;;;;;;41.95;17;;;;;;;-0.57;80.99609;94214.11;;;;
2021/01/03 04:10:29;;;;;;;41.95;17;;;;;;;-0.57;80.99609;94214.11;;;;
2021/01/03 04:11:30;;;;;;;41.95;17;;;;;;;-0.57;80.99609;94214.11;;;;
2021/01/03 04:12:31;;;;;;;41.95;17;;;;;;;-0.57;80.99609;94214.11;;;;
2021/01/03 04:13:31;;;;;;;41.95;17;;;;;;;-0.57;80.99609;94214.11;;;;
2021/01/03 04:14:32;;;;;;;41.95;17;;;;;;;-0.57;80.99609;94214.11;;;;
2021/01/03 04:15:33;;;;;;;41.95;17;;;;;;;-0.57;80.99609;94214.11;;;;
2021/01/03 04:16:34;;;;;;;41.95;17;;;;;;;-0.57;80.99609;94214.11;;;;
2021/01/03 04:17:34;;;;;;;41.95;17;;;;;;;-0.57;80.99609;94214.11;;;;
2021/01/03 04:18:35;;;;;;;38.35;15.05;;;;;;;-0.63;80.94336;94209.58;;;;
2021/01/03 04:19:35;;;;;;;38.35;15.05;;;;;;;-0.63;80.94336;94209.58;;;;
2021/01/03 04:20:36;;;;;;;38.35;15.05;;;;;;;-0.63;80.94336;94209.58;;;;
2021/01/03 04:21:37;;;;;;;38.35;15.05;;;;;;;-0.63;80.94336;94209.58;;;;
2021/01/03 04:22:37;;;;;;;38.35;15.05;;;;;;;-0.63;80.94336;94209.58;;;;
2021/01/03 04:23:38;;;;;;;38.35;15.05;;;;;;;-0.63;80.94336;94209.58;;;;
2021/01/03 04:24:39;;;;;;;38.35;15.05;;;;;;;-0.63;80.94336;94209.58;;;;
2021/01/03 04:25:39;;;;;;;38.35;15.05;;;;;;;-0.63;80.94336;94209.58;;;;
2021/01/03 04:26:39;;;;;;;38.35;15.05;;;;;;;-0.63;80.94336;94209.58;;;;
2021/01/03 04:27:40;;;;;;;38.35;15.05;;;;;;;-0.63;80.94336;94209.58;;;;
2021/01/03 04:28:41;;;;;;;41.59999;15.2;;;;;;;-0.69;81.30566;94208.22;;;;
2021/01/03 04:29:41;;;;;;;41.59999;15.2;;;;;;;-0.69;81.30566;94208.22;;;;
2021/01/03 04:30:42;;;;;;;41.59999;15.2;;;;;;;-0.69;81.30566;94208.22;;;;
2021/01/03 04:31:43;;;;;;;41.59999;15.2;;;;;;;-0.69;81.30566;94208.22;;;;
2021/01/03 04:32:44;;;;;;;41.59999;15.2;;;;;;;-0.69;81.30566;94208.22;;;;
2021/01/03 04:33:44;;;;;;;41.59999;15.2;;;;;;;-0.69;81.30566;94208.22;;;;
2021/01/03 04:34:45;;;;;;;41.59999;15.2;;;;;;;-0.69;81.30566;94208.22;;;;
2021/01/03 04:35:46;;;;;;;41.59999;15.2;;;;;;;-0.69;81.30566;94208.22;;;;
2021/01/03 04:36:48;;;;;;;41.59999;15.2;;;;;;;-0.69;81.30566;94208.22;;;;
2021/01/03 04:37:50;;;;;;;41.59999;15.2;;;;;;;-0.69;81.30566;94208.22;;;;
2021/01/03 04:38:51;;;;;;;41.59999;15.2;;;;;;;-0.69;81.30566;94208.22;;;;
2021/01/03 04:39:52;;;;;;;39.4;15.75;;;;;;;-0.74;81.63086;94215.83;;;;
2021/01/03 04:40:52;;;;;;;39.4;15.75;;;;;;;-0.74;81.63086;94215.83;;;;
2021/01/03 04:41:54;;;;;;;39.4;15.75;;;;;;;-0.74;81.63086;94215.83;;;;
2021/01/03 04:42:58;;;;;;;39.4;15.75;;;;;;;-0.74;81.63086;94215.83;;;;
2021/01/03 04:44:01;;;;;;;39.4;15.75;;;;;;;-0.74;81.63086;94215.83;;;;
2021/01/03 04:45:08;;;;;;;39.4;15.75;;;;;;;-0.74;81.63086;94215.83;;;;
2021/01/03 04:46:16;;;;;;;39.4;15.75;;;;;;;-0.74;81.63086;94215.83;;;;
2021/01/03 04:47:21;;;;;;;39.4;15.75;;;;;;;-0.74;81.63086;94215.83;;;;
2021/01/03 04:48:25;;;;;;;39.4;15.75;;;;;;;-0.74;81.63086;94215.83;;;;
2021/01/03 04:49:29;;;;;;;39.4;15.75;;;;;;;-0.74;81.63086;94215.83;;;;
2021/01/03 04:50:37;;;;;;;39.7;14.85;;;;;;;-0.72;81.92578;94207.17;;;;
2021/01/03 04:52:01;;;;;;;39.7;14.85;;;;;;;-0.72;81.92578;94207.17;;;;
2021/01/03 04:53:32;;;;;;;39.7;14.85;;;;;;;-0.72;81.92578;94207.17;;;;
2021/01/03 04:54:44;;;;;;;39.7;14.85;;;;;;;-0.72;81.92578;94207.17;;;;
2021/01/03 04:55:53;;;;;;;39.7;14.85;;;;;;;-0.72;81.92578;94207.17;;;;
2021/01/03 04:57:00;;;;;;;39.7;14.85;;;;;;;-0.72;81.92578;94207.17;;;;
2021/01/03 04:58:08;;;;;;;39.7;14.85;;;;;;;-0.72;81.92578;94207.17;;;;
2021/01/03 04:59:19;;;;;;;39.7;14.85;;;;;;;-0.72;81.92578;94207.17;;;;
2021/01/03 05:00:33;;;;;;;37.8;15.55;;;;;;;-0.65;81.91797;94212.54;;;;
2021/01/03 05:01:38;;;;;;;37.8;15.55;;;;;;;-0.65;81.91797;94212.54;;;;
2021/01/03 05:02:59;;;;;;;37.8;15.55;;;;;;;-0.65;81.91797;94212.54;;;;
2021/01/03 05:04:32;;;;;;;37.8;15.55;;;;;;;-0.65;81.91797;94212.54;;;;
2021/01/03 05:05:45;;;;;;;37.8;15.55;;;;;;;-0.65;81.91797;94212.54;;;;
2021/01/03 05:06:48;;;;;;;37.8;15.55;;;;;;;-0.65;81.91797;94212.54;;;;
2021/01/03 05:07:51;;;;;;;37.8;15.55;;;;;;;-0.65;81.91797;94212.54;;;;
2021/01/03 05:09:02;;;;;;;37.8;15.55;;;;;;;-0.65;81.91797;94212.54;;;;
2021/01/03 05:10:07;;;;;;;37.8;15.55;;;;;;;-0.65;81.91797;94212.54;;;;
2021/01/03 05:11:12;;;;;;;41.5;16.4;;;;;;;-0.61;81.51953;94226.11;;;;
2021/01/03 05:12:16;;;;;;;41.5;16.4;;;;;;;-0.61;81.51953;94226.11;;;;
2021/01/03 05:13:23;;;;;;;41.5;16.4;;;;;;;-0.61;81.51953;94226.11;;;;
2021/01/03 05:14:34;;;;;;;41.5;16.4;;;;;;;-0.61;81.51953;94226.11;;;;
2021/01/03 05:15:39;;;;;;;41.5;16.4;;;;;;;-0.61;81.51953;94226.11;;;;
2021/01/03 05:16:39;;;;;;;41.5;16.4;;;;;;;-0.61;81.51953;94226.11;;;;
2021/01/03 05:17:40;;;;;;;41.5;16.4;;;;;;;-0.61;81.51953;94226.11;;;;
2021/01/03 05:18:40;;;;;;;41.5;16.4;;;;;;;-0.61;81.51953;94226.11;;;;
2021/01/03 05:19:41;;;;;;;41.5;16.4;;;;;;;-0.61;81.51953;94226.11;;;;
2021/01/03 05:20:41;;;;;;;41.5;16.4;;;;;;;-0.61;81.51953;94226.11;;;;
2021/01/03 05:21:51;;;;;;;36.35;14.5;;;;;;;-0.55;81.49902;94223.6;;;;
2021/01/03 05:22:54;;;;;;;36.35;14.5;;;;;;;-0.55;81.49902;94223.6;;;;
2021/01/03 05:24:12;;;;;;;36.35;14.5;;;;;;;-0.55;81.49902;94223.6;;;;
2021/01/03 05:25:13;;;;;;;36.35;14.5;;;;;;;-0.55;81.49902;94223.6;;;;
2021/01/03 05:26:16;;;;;;;36.35;14.5;;;;;;;-0.55;81.49902;94223.6;;;;
2021/01/03 05:27:27;;;;;;;36.35;14.5;;;;;;;-0.55;81.49902;94223.6;;;;
2021/01/03 05:28:29;;;;;;;36.35;14.5;;;;;;;-0.55;81.49902;94223.6;;;;
2021/01/03 05:29:32;;;;;;;36.35;14.5;;;;;;;-0.55;81.49902;94223.6;;;;
2021/01/03 05:30:33;;;;;;;36.35;14.5;;;;;;;-0.55;81.49902;94223.6;;;;
2021/01/03 05:31:33;;;;;;;36.35;14.5;;;;;;;-0.55;81.49902;94223.6;;;;
2021/01/03 05:32:34;;;;;;;37.15001;14.75;;;;;;;-0.52;81.51465;94229.44;;;;
2021/01/03 05:33:35;;;;;;;37.15001;14.75;;;;;;;-0.52;81.51465;94229.44;;;;
2021/01/03 05:34:36;;;;;;;37.15001;14.75;;;;;;;-0.52;81.51465;94229.44;;;;
2021/01/03 05:35:39;;;;;;;37.15001;14.75;;;;;;;-0.52;81.51465;94229.44;;;;
2021/01/03 05:36:42;;;;;;;37.15001;14.75;;;;;;;-0.52;81.51465;94229.44;;;;
2021/01/03 05:37:46;;;;;;;37.15001;14.75;;;;;;;-0.52;81.51465;94229.44;;;;
2021/01/03 05:38:49;;;;;;;37.15001;14.75;;;;;;;-0.52;81.51465;94229.44;;;;
2021/01/03 05:39:49;;;;;;;37.15001;14.75;;;;;;;-0.52;81.51465;94229.44;;;;
2021/01/03 05:40:51;;;;;;;37.15001;14.75;;;;;;;-0.52;81.51465;94229.44;;;;
2021/01/03 05:42:05;;;;;;;37.15001;14.75;;;;;;;-0.52;81.51465;94229.44;;;;
2021/01/03 05:43:17;;;;;;;39.75;16.1;;;;;;;-0.58;81.47461;94228.39;;;;
2021/01/03 05:44:21;;;;;;;39.75;16.1;;;;;;;-0.58;81.47461;94228.39;;;;
2021/01/03 05:45:24;;;;;;;39.75;16.1;;;;;;;-0.58;81.47461;94228.39;;;;
2021/01/03 05:46:27;;;;;;;39.75;16.1;;;;;;;-0.58;81.47461;94228.39;;;;
2021/01/03 05:47:36;;;;;;;39.75;16.1;;;;;;;-0.58;81.47461;94228.39;;;;
2021/01/03 05:48:38;;;;;;;39.75;16.1;;;;;;;-0.58;81.47461;94228.39;;;;
2021/01/03 05:49:43;;;;;;;39.75;16.1;;;;;;;-0.58;81.47461;94228.39;;;;